sensor_id;sensor_type;location;lat;lon;timestamp;P1;durP1;ratioP1;P2;durP2;ratioP2
69985;SDS011;57328;52.054;5.294;2023-05-01T00:00:52;5.63;;;2.50;;
69985;SDS011;57328;52.054;5.294;2023-05-01T00:03:19;7.30;;;2.65;;
69985;SDS011;57328;52.054;5.294;2023-05-01T00:05:46;5.43;;;2.25;;
69985;SDS011;57328;52.054;5.294;2023-05-01T00:08:14;8.30;;;2.50;;
69985;SDS011;57328;52.054;5.294;2023-05-01T00:10:41;4.60;;;2.45;;
69985;SDS011;57328;52.054;5.294;2023-05-01T00:13:08;7.70;;;2.53;;
69985;SDS011;57328;52.054;5.294;2023-05-01T00:15:35;5.55;;;2.30;;
69985;SDS011;57328;52.054;5.294;2023-05-01T00:18:03;5.15;;;2.47;;
69985;SDS011;57328;52.054;5.294;2023-05-01T00:20:30;6.45;;;2.40;;
69985;SDS011;57328;52.054;5.294;2023-05-01T00:22:57;5.10;;;2.53;;
69985;SDS011;57328;52.054;5.294;2023-05-01T00:25:24;5.43;;;2.60;;
69985;SDS011;57328;52.054;5.294;2023-05-01T00:27:52;4.60;;;2.40;;
69985;SDS011;57328;52.054;5.294;2023-05-01T00:30:19;6.15;;;2.35;;
69985;SDS011;57328;52.054;5.294;2023-05-01T00:32:46;6.82;;;2.28;;
69985;SDS011;57328;52.054;5.294;2023-05-01T00:35:14;5.13;;;2.28;;
69985;SDS011;57328;52.054;5.294;2023-05-01T00:37:41;8.13;;;2.72;;
69985;SDS011;57328;52.054;5.294;2023-05-01T00:40:08;7.25;;;2.83;;
69985;SDS011;57328;52.054;5.294;2023-05-01T00:42:37;7.55;;;2.70;;
69985;SDS011;57328;52.054;5.294;2023-05-01T00:45:05;6.10;;;2.78;;
69985;SDS011;57328;52.054;5.294;2023-05-01T00:47:35;6.90;;;2.58;;
69985;SDS011;57328;52.054;5.294;2023-05-01T00:50:06;6.85;;;2.50;;
69985;SDS011;57328;52.054;5.294;2023-05-01T00:52:33;8.75;;;2.60;;
69985;SDS011;57328;52.054;5.294;2023-05-01T00:55:01;5.13;;;2.83;;
69985;SDS011;57328;52.054;5.294;2023-05-01T00:57:28;4.75;;;2.22;;
69985;SDS011;57328;52.054;5.294;2023-05-01T00:59:55;5.55;;;2.63;;
69985;SDS011;57328;52.054;5.294;2023-05-01T01:02:23;4.63;;;2.45;;
69985;SDS011;57328;52.054;5.294;2023-05-01T01:04:52;7.57;;;2.60;;
69985;SDS011;57328;52.054;5.294;2023-05-01T01:07:21;5.57;;;2.42;;
69985;SDS011;57328;52.054;5.294;2023-05-01T01:12:29;6.70;;;2.60;;
69985;SDS011;57328;52.054;5.294;2023-05-01T01:15:01;5.50;;;2.25;;
69985;SDS011;57328;52.054;5.294;2023-05-01T01:17:33;9.75;;;2.92;;
69985;SDS011;57328;52.054;5.294;2023-05-01T01:20:10;6.03;;;2.78;;
69985;SDS011;57328;52.054;5.294;2023-05-01T01:22:41;5.40;;;2.30;;
69985;SDS011;57328;52.054;5.294;2023-05-01T01:25:19;7.07;;;2.63;;
69985;SDS011;57328;52.054;5.294;2023-05-01T01:35:55;5.70;;;2.38;;
69985;SDS011;57328;52.054;5.294;2023-05-01T01:38:43;5.30;;;2.40;;
69985;SDS011;57328;52.054;5.294;2023-05-01T01:41:13;7.75;;;2.72;;
69985;SDS011;57328;52.054;5.294;2023-05-01T01:43:46;7.63;;;2.95;;
69985;SDS011;57328;52.054;5.294;2023-05-01T01:46:16;6.22;;;2.50;;
69985;SDS011;57328;52.054;5.294;2023-05-01T01:48:46;6.82;;;2.80;;
69985;SDS011;57328;52.054;5.294;2023-05-01T01:51:15;6.88;;;2.90;;
69985;SDS011;57328;52.054;5.294;2023-05-01T01:53:45;5.45;;;2.70;;
69985;SDS011;57328;52.054;5.294;2023-05-01T01:56:12;6.93;;;2.78;;
69985;SDS011;57328;52.054;5.294;2023-05-01T01:58:40;5.28;;;2.53;;
69985;SDS011;57328;52.054;5.294;2023-05-01T02:01:09;7.32;;;2.65;;
69985;SDS011;57328;52.054;5.294;2023-05-01T02:03:36;5.85;;;2.83;;
69985;SDS011;57328;52.054;5.294;2023-05-01T02:06:04;6.72;;;2.35;;
69985;SDS011;57328;52.054;5.294;2023-05-01T02:08:32;6.22;;;2.60;;
69985;SDS011;57328;52.054;5.294;2023-05-01T02:11:01;5.93;;;2.83;;
69985;SDS011;57328;52.054;5.294;2023-05-01T02:13:28;6.97;;;2.40;;
69985;SDS011;57328;52.054;5.294;2023-05-01T02:15:59;8.35;;;3.10;;
69985;SDS011;57328;52.054;5.294;2023-05-01T02:18:28;9.30;;;3.15;;
69985;SDS011;57328;52.054;5.294;2023-05-01T02:20:55;7.85;;;3.15;;
69985;SDS011;57328;52.054;5.294;2023-05-01T02:23:24;6.65;;;2.83;;
69985;SDS011;57328;52.054;5.294;2023-05-01T02:25:52;8.48;;;3.20;;
69985;SDS011;57328;52.054;5.294;2023-05-01T02:28:22;8.32;;;3.15;;
69985;SDS011;57328;52.054;5.294;2023-05-01T02:30:49;6.05;;;2.80;;
69985;SDS011;57328;52.054;5.294;2023-05-01T02:33:17;9.05;;;3.33;;
69985;SDS011;57328;52.054;5.294;2023-05-01T02:35:44;7.80;;;3.03;;
69985;SDS011;57328;52.054;5.294;2023-05-01T02:38:12;7.95;;;2.90;;
69985;SDS011;57328;52.054;5.294;2023-05-01T02:40:44;8.55;;;2.88;;
69985;SDS011;57328;52.054;5.294;2023-05-01T02:43:12;7.43;;;2.80;;
69985;SDS011;57328;52.054;5.294;2023-05-01T02:48:08;7.32;;;2.83;;
69985;SDS011;57328;52.054;5.294;2023-05-01T02:50:36;5.93;;;2.72;;
69985;SDS011;57328;52.054;5.294;2023-05-01T02:53:05;5.63;;;2.33;;
69985;SDS011;57328;52.054;5.294;2023-05-01T02:55:33;8.43;;;2.90;;
69985;SDS011;57328;52.054;5.294;2023-05-01T02:58:01;7.30;;;2.95;;
69985;SDS011;57328;52.054;5.294;2023-05-01T03:00:28;11.27;;;2.90;;
69985;SDS011;57328;52.054;5.294;2023-05-01T03:02:55;9.35;;;3.20;;
69985;SDS011;57328;52.054;5.294;2023-05-01T03:05:23;8.90;;;3.13;;
69985;SDS011;57328;52.054;5.294;2023-05-01T03:07:50;9.57;;;3.00;;
69985;SDS011;57328;52.054;5.294;2023-05-01T03:10:17;7.28;;;3.15;;
69985;SDS011;57328;52.054;5.294;2023-05-01T03:12:45;7.30;;;3.22;;
69985;SDS011;57328;52.054;5.294;2023-05-01T03:15:12;12.93;;;2.90;;
69985;SDS011;57328;52.054;5.294;2023-05-01T03:17:39;9.52;;;2.90;;
69985;SDS011;57328;52.054;5.294;2023-05-01T03:20:07;8.30;;;2.90;;
69985;SDS011;57328;52.054;5.294;2023-05-01T03:22:36;5.38;;;2.90;;
69985;SDS011;57328;52.054;5.294;2023-05-01T03:25:03;6.88;;;3.15;;
69985;SDS011;57328;52.054;5.294;2023-05-01T03:27:30;8.07;;;3.38;;
69985;SDS011;57328;52.054;5.294;2023-05-01T03:29:57;9.75;;;3.28;;
69985;SDS011;57328;52.054;5.294;2023-05-01T03:32:25;9.57;;;2.88;;
69985;SDS011;57328;52.054;5.294;2023-05-01T03:41:09;10.23;;;3.15;;
69985;SDS011;57328;52.054;5.294;2023-05-01T03:43:36;7.93;;;3.30;;
69985;SDS011;57328;52.054;5.294;2023-05-01T03:46:04;7.38;;;3.05;;
69985;SDS011;57328;52.054;5.294;2023-05-01T03:48:31;9.75;;;3.42;;
69985;SDS011;57328;52.054;5.294;2023-05-01T03:50:59;6.75;;;3.22;;
69985;SDS011;57328;52.054;5.294;2023-05-01T03:53:27;9.13;;;3.70;;
69985;SDS011;57328;52.054;5.294;2023-05-01T03:55:54;7.57;;;3.28;;
69985;SDS011;57328;52.054;5.294;2023-05-01T03:58:21;7.20;;;2.97;;
69985;SDS011;57328;52.054;5.294;2023-05-01T04:04:17;10.20;;;3.90;;
69985;SDS011;57328;52.054;5.294;2023-05-01T04:06:44;12.13;;;3.80;;
69985;SDS011;57328;52.054;5.294;2023-05-01T04:09:14;8.07;;;3.00;;
69985;SDS011;57328;52.054;5.294;2023-05-01T04:11:41;7.63;;;3.22;;
69985;SDS011;57328;52.054;5.294;2023-05-01T04:14:08;6.80;;;3.30;;
69985;SDS011;57328;52.054;5.294;2023-05-01T04:16:35;8.80;;;3.42;;
69985;SDS011;57328;52.054;5.294;2023-05-01T04:19:03;8.73;;;3.20;;
69985;SDS011;57328;52.054;5.294;2023-05-01T04:21:30;6.93;;;2.92;;
69985;SDS011;57328;52.054;5.294;2023-05-01T04:23:57;7.78;;;3.00;;
69985;SDS011;57328;52.054;5.294;2023-05-01T04:26:24;9.73;;;3.13;;
69985;SDS011;57328;52.054;5.294;2023-05-01T04:28:51;7.18;;;3.25;;
69985;SDS011;57328;52.054;5.294;2023-05-01T04:31:19;7.88;;;3.22;;
69985;SDS011;57328;52.054;5.294;2023-05-01T04:33:46;7.85;;;2.90;;
69985;SDS011;57328;52.054;5.294;2023-05-01T04:36:13;9.50;;;3.22;;
69985;SDS011;57328;52.054;5.294;2023-05-01T04:38:40;11.70;;;3.15;;
69985;SDS011;57328;52.054;5.294;2023-05-01T04:41:07;6.40;;;3.15;;
69985;SDS011;57328;52.054;5.294;2023-05-01T04:43:35;9.02;;;3.45;;
69985;SDS011;57328;52.054;5.294;2023-05-01T04:46:02;10.43;;;3.03;;
69985;SDS011;57328;52.054;5.294;2023-05-01T04:48:30;15.25;;;3.53;;
69985;SDS011;57328;52.054;5.294;2023-05-01T04:50:57;8.18;;;3.28;;
69985;SDS011;57328;52.054;5.294;2023-05-01T04:53:24;7.93;;;3.13;;
69985;SDS011;57328;52.054;5.294;2023-05-01T04:55:52;8.52;;;3.58;;
69985;SDS011;57328;52.054;5.294;2023-05-01T04:58:19;7.07;;;2.80;;
69985;SDS011;57328;52.054;5.294;2023-05-01T05:00:46;6.90;;;2.83;;
69985;SDS011;57328;52.054;5.294;2023-05-01T05:03:13;8.40;;;2.95;;
69985;SDS011;57328;52.054;5.294;2023-05-01T05:05:44;9.57;;;3.88;;
69985;SDS011;57328;52.054;5.294;2023-05-01T05:08:14;8.88;;;3.20;;
69985;SDS011;57328;52.054;5.294;2023-05-01T05:10:41;9.95;;;3.42;;
69985;SDS011;57328;52.054;5.294;2023-05-01T05:13:08;7.63;;;3.17;;
69985;SDS011;57328;52.054;5.294;2023-05-01T05:15:36;9.02;;;3.45;;
69985;SDS011;57328;52.054;5.294;2023-05-01T05:18:03;6.68;;;3.25;;
69985;SDS011;57328;52.054;5.294;2023-05-01T05:20:30;8.68;;;3.95;;
69985;SDS011;57328;52.054;5.294;2023-05-01T05:22:57;10.25;;;3.50;;
69985;SDS011;57328;52.054;5.294;2023-05-01T05:25:24;8.68;;;3.38;;
69985;SDS011;57328;52.054;5.294;2023-05-01T05:27:51;10.57;;;3.50;;
69985;SDS011;57328;52.054;5.294;2023-05-01T05:30:19;9.57;;;3.40;;
69985;SDS011;57328;52.054;5.294;2023-05-01T05:32:46;8.18;;;3.30;;
69985;SDS011;57328;52.054;5.294;2023-05-01T05:35:14;9.93;;;3.45;;
69985;SDS011;57328;52.054;5.294;2023-05-01T05:37:41;10.50;;;3.30;;
69985;SDS011;57328;52.054;5.294;2023-05-01T05:40:11;9.90;;;3.67;;
69985;SDS011;57328;52.054;5.294;2023-05-01T05:42:38;11.20;;;3.90;;
69985;SDS011;57328;52.054;5.294;2023-05-01T05:45:06;9.48;;;3.33;;
69985;SDS011;57328;52.054;5.294;2023-05-01T05:47:33;10.85;;;3.80;;
69985;SDS011;57328;52.054;5.294;2023-05-01T05:50:00;9.10;;;3.40;;
69985;SDS011;57328;52.054;5.294;2023-05-01T05:52:28;9.15;;;3.50;;
69985;SDS011;57328;52.054;5.294;2023-05-01T05:54:55;7.28;;;3.47;;
69985;SDS011;57328;52.054;5.294;2023-05-01T05:57:22;9.48;;;3.80;;
69985;SDS011;57328;52.054;5.294;2023-05-01T05:59:49;8.43;;;3.53;;
69985;SDS011;57328;52.054;5.294;2023-05-01T06:02:17;9.77;;;3.88;;
69985;SDS011;57328;52.054;5.294;2023-05-01T06:04:44;7.43;;;3.38;;
69985;SDS011;57328;52.054;5.294;2023-05-01T06:07:11;10.27;;;3.90;;
69985;SDS011;57328;52.054;5.294;2023-05-01T06:09:38;7.53;;;3.50;;
69985;SDS011;57328;52.054;5.294;2023-05-01T06:12:06;9.20;;;3.55;;
69985;SDS011;57328;52.054;5.294;2023-05-01T06:14:33;8.20;;;3.15;;
69985;SDS011;57328;52.054;5.294;2023-05-01T06:17:00;10.40;;;3.83;;
69985;SDS011;57328;52.054;5.294;2023-05-01T06:19:27;9.40;;;3.55;;
69985;SDS011;57328;52.054;5.294;2023-05-01T06:21:55;11.05;;;3.40;;
69985;SDS011;57328;52.054;5.294;2023-05-01T06:24:22;8.25;;;3.40;;
69985;SDS011;57328;52.054;5.294;2023-05-01T06:26:49;12.85;;;4.03;;
69985;SDS011;57328;52.054;5.294;2023-05-01T06:29:16;8.40;;;3.78;;
69985;SDS011;57328;52.054;5.294;2023-05-01T06:31:43;9.85;;;3.58;;
69985;SDS011;57328;52.054;5.294;2023-05-01T06:34:11;8.65;;;3.60;;
69985;SDS011;57328;52.054;5.294;2023-05-01T06:36:38;6.70;;;3.33;;
69985;SDS011;57328;52.054;5.294;2023-05-01T06:39:05;10.60;;;3.42;;
69985;SDS011;57328;52.054;5.294;2023-05-01T06:41:32;8.52;;;3.40;;
69985;SDS011;57328;52.054;5.294;2023-05-01T06:44:01;8.10;;;3.38;;
69985;SDS011;57328;52.054;5.294;2023-05-01T06:46:28;9.50;;;3.15;;
69985;SDS011;57328;52.054;5.294;2023-05-01T06:48:56;9.57;;;4.30;;
69985;SDS011;57328;52.054;5.294;2023-05-01T06:51:23;9.25;;;3.58;;
69985;SDS011;57328;52.054;5.294;2023-05-01T06:53:51;9.25;;;3.60;;
69985;SDS011;57328;52.054;5.294;2023-05-01T06:56:18;8.55;;;3.42;;
69985;SDS011;57328;52.054;5.294;2023-05-01T06:58:46;8.40;;;3.53;;
69985;SDS011;57328;52.054;5.294;2023-05-01T07:01:13;8.98;;;3.90;;
69985;SDS011;57328;52.054;5.294;2023-05-01T07:03:41;9.18;;;3.83;;
69985;SDS011;57328;52.054;5.294;2023-05-01T07:06:09;8.13;;;3.75;;
69985;SDS011;57328;52.054;5.294;2023-05-01T07:08:36;10.40;;;3.70;;
69985;SDS011;57328;52.054;5.294;2023-05-01T07:11:03;9.18;;;3.80;;
69985;SDS011;57328;52.054;5.294;2023-05-01T07:13:31;8.15;;;3.55;;
69985;SDS011;57328;52.054;5.294;2023-05-01T07:15:58;8.48;;;3.70;;
69985;SDS011;57328;52.054;5.294;2023-05-01T07:18:26;10.73;;;4.30;;
69985;SDS011;57328;52.054;5.294;2023-05-01T07:20:54;9.70;;;3.92;;
69985;SDS011;57328;52.054;5.294;2023-05-01T07:23:21;12.02;;;4.78;;
69985;SDS011;57328;52.054;5.294;2023-05-01T07:25:51;9.70;;;3.90;;
69985;SDS011;57328;52.054;5.294;2023-05-01T07:28:18;9.73;;;3.60;;
69985;SDS011;57328;52.054;5.294;2023-05-01T07:30:47;9.35;;;3.70;;
69985;SDS011;57328;52.054;5.294;2023-05-01T07:33:14;8.50;;;4.00;;
69985;SDS011;57328;52.054;5.294;2023-05-01T07:35:41;9.98;;;4.10;;
69985;SDS011;57328;52.054;5.294;2023-05-01T07:38:09;11.48;;;4.60;;
69985;SDS011;57328;52.054;5.294;2023-05-01T07:40:36;12.07;;;4.10;;
69985;SDS011;57328;52.054;5.294;2023-05-01T07:43:03;10.70;;;4.00;;
69985;SDS011;57328;52.054;5.294;2023-05-01T07:45:32;11.05;;;4.10;;
69985;SDS011;57328;52.054;5.294;2023-05-01T07:48:00;11.55;;;4.57;;
69985;SDS011;57328;52.054;5.294;2023-05-01T07:50:27;9.75;;;4.00;;
69985;SDS011;57328;52.054;5.294;2023-05-01T07:52:54;11.10;;;4.28;;
69985;SDS011;57328;52.054;5.294;2023-05-01T07:55:21;9.45;;;4.30;;
69985;SDS011;57328;52.054;5.294;2023-05-01T07:57:49;9.88;;;4.63;;
69985;SDS011;57328;52.054;5.294;2023-05-01T08:00:16;10.43;;;4.50;;
69985;SDS011;57328;52.054;5.294;2023-05-01T08:02:46;8.85;;;4.50;;
69985;SDS011;57328;52.054;5.294;2023-05-01T08:05:14;10.35;;;4.20;;
69985;SDS011;57328;52.054;5.294;2023-05-01T08:07:41;12.48;;;4.50;;
69985;SDS011;57328;52.054;5.294;2023-05-01T08:10:08;9.80;;;4.13;;
69985;SDS011;57328;52.054;5.294;2023-05-01T08:12:35;8.98;;;4.43;;
69985;SDS011;57328;52.054;5.294;2023-05-01T08:15:03;12.85;;;4.25;;
69985;SDS011;57328;52.054;5.294;2023-05-01T08:17:30;11.30;;;4.13;;
69985;SDS011;57328;52.054;5.294;2023-05-01T08:19:59;11.90;;;4.25;;
69985;SDS011;57328;52.054;5.294;2023-05-01T08:29:48;8.77;;;4.15;;
69985;SDS011;57328;52.054;5.294;2023-05-01T08:32:17;8.02;;;4.15;;
69985;SDS011;57328;52.054;5.294;2023-05-01T08:34:45;13.15;;;4.57;;
69985;SDS011;57328;52.054;5.294;2023-05-01T08:37:12;9.85;;;4.13;;
69985;SDS011;57328;52.054;5.294;2023-05-01T08:39:39;11.80;;;4.43;;
69985;SDS011;57328;52.054;5.294;2023-05-01T08:42:06;13.20;;;4.18;;
69985;SDS011;57328;52.054;5.294;2023-05-01T08:44:35;10.75;;;3.80;;
69985;SDS011;57328;52.054;5.294;2023-05-01T08:47:14;8.77;;;4.00;;
69985;SDS011;57328;52.054;5.294;2023-05-01T08:49:41;10.55;;;4.35;;
69985;SDS011;57328;52.054;5.294;2023-05-01T08:52:12;9.30;;;4.32;;
69985;SDS011;57328;52.054;5.294;2023-05-01T08:54:43;9.55;;;4.10;;
69985;SDS011;57328;52.054;5.294;2023-05-01T08:57:12;9.45;;;4.50;;
69985;SDS011;57328;52.054;5.294;2023-05-01T08:59:39;8.38;;;3.75;;
69985;SDS011;57328;52.054;5.294;2023-05-01T09:02:07;10.43;;;4.03;;
69985;SDS011;57328;52.054;5.294;2023-05-01T09:04:36;10.20;;;4.07;;
69985;SDS011;57328;52.054;5.294;2023-05-01T09:07:04;11.35;;;4.30;;
69985;SDS011;57328;52.054;5.294;2023-05-01T09:09:31;10.50;;;4.05;;
69985;SDS011;57328;52.054;5.294;2023-05-01T09:12:46;8.32;;;3.78;;
69985;SDS011;57328;52.054;5.294;2023-05-01T09:14:46;10.50;;;4.15;;
69985;SDS011;57328;52.054;5.294;2023-05-01T09:17:13;9.07;;;3.58;;
69985;SDS011;57328;52.054;5.294;2023-05-01T09:19:41;7.72;;;3.40;;
69985;SDS011;57328;52.054;5.294;2023-05-01T09:22:08;8.55;;;3.65;;
69985;SDS011;57328;52.054;5.294;2023-05-01T09:24:35;9.05;;;3.75;;
69985;SDS011;57328;52.054;5.294;2023-05-01T09:27:03;9.60;;;3.47;;
69985;SDS011;57328;52.054;5.294;2023-05-01T09:29:42;10.38;;;3.60;;
69985;SDS011;57328;52.054;5.294;2023-05-01T09:34:40;8.70;;;3.60;;
69985;SDS011;57328;52.054;5.294;2023-05-01T09:39:35;9.15;;;3.20;;
69985;SDS011;57328;52.054;5.294;2023-05-01T09:42:04;8.02;;;3.35;;
69985;SDS011;57328;52.054;5.294;2023-05-01T09:44:35;9.80;;;4.32;;
69985;SDS011;57328;52.054;5.294;2023-05-01T09:47:13;8.38;;;3.15;;
69985;SDS011;57328;52.054;5.294;2023-05-01T09:49:48;7.70;;;3.42;;
69985;SDS011;57328;52.054;5.294;2023-05-01T09:52:15;8.05;;;2.85;;
69985;SDS011;57328;52.054;5.294;2023-05-01T09:54:42;7.43;;;3.08;;
69985;SDS011;57328;52.054;5.294;2023-05-01T09:57:09;7.97;;;3.25;;
69985;SDS011;57328;52.054;5.294;2023-05-01T09:59:37;7.05;;;2.90;;
69985;SDS011;57328;52.054;5.294;2023-05-01T10:02:04;8.98;;;3.03;;
69985;SDS011;57328;52.054;5.294;2023-05-01T10:04:34;7.07;;;2.50;;
69985;SDS011;57328;52.054;5.294;2023-05-01T10:07:13;7.75;;;2.72;;
69985;SDS011;57328;52.054;5.294;2023-05-01T10:09:40;8.20;;;2.50;;
69985;SDS011;57328;52.054;5.294;2023-05-01T10:12:08;8.10;;;2.45;;
69985;SDS011;57328;52.054;5.294;2023-05-01T10:14:48;8.85;;;2.83;;
69985;SDS011;57328;52.054;5.294;2023-05-01T10:17:15;7.95;;;2.85;;
69985;SDS011;57328;52.054;5.294;2023-05-01T10:19:45;6.85;;;2.67;;
69985;SDS011;57328;52.054;5.294;2023-05-01T10:22:12;9.57;;;2.50;;
69985;SDS011;57328;52.054;5.294;2023-05-01T10:24:40;6.32;;;2.58;;
69985;SDS011;57328;52.054;5.294;2023-05-01T10:27:08;6.55;;;2.58;;
69985;SDS011;57328;52.054;5.294;2023-05-01T10:29:36;8.38;;;2.45;;
69985;SDS011;57328;52.054;5.294;2023-05-01T10:32:03;5.97;;;2.30;;
69985;SDS011;57328;52.054;5.294;2023-05-01T10:34:42;8.38;;;2.70;;
69985;SDS011;57328;52.054;5.294;2023-05-01T10:37:20;7.78;;;2.80;;
69985;SDS011;57328;52.054;5.294;2023-05-01T10:39:48;6.82;;;2.47;;
69985;SDS011;57328;52.054;5.294;2023-05-01T10:42:15;5.57;;;2.30;;
69985;SDS011;57328;52.054;5.294;2023-05-01T10:44:43;5.68;;;2.30;;
69985;SDS011;57328;52.054;5.294;2023-05-01T10:55:31;7.65;;;3.60;;
69985;SDS011;57328;52.054;5.294;2023-05-01T10:57:58;8.70;;;3.22;;
69985;SDS011;57328;52.054;5.294;2023-05-01T11:00:26;9.88;;;3.35;;
69985;SDS011;57328;52.054;5.294;2023-05-01T11:08:29;9.02;;;3.47;;
69985;SDS011;57328;52.054;5.294;2023-05-01T11:10:57;8.05;;;3.33;;
69985;SDS011;57328;52.054;5.294;2023-05-01T11:21:43;10.32;;;3.85;;
69985;SDS011;57328;52.054;5.294;2023-05-01T11:24:11;7.88;;;2.33;;
69985;SDS011;57328;52.054;5.294;2023-05-01T11:26:39;8.43;;;3.38;;
69985;SDS011;57328;52.054;5.294;2023-05-01T11:29:08;7.90;;;3.88;;
69985;SDS011;57328;52.054;5.294;2023-05-01T11:31:36;7.57;;;3.85;;
69985;SDS011;57328;52.054;5.294;2023-05-01T11:34:03;7.78;;;3.05;;
69985;SDS011;57328;52.054;5.294;2023-05-01T11:37:07;7.90;;;3.35;;
69985;SDS011;57328;52.054;5.294;2023-05-01T11:39:27;9.75;;;3.65;;
69985;SDS011;57328;52.054;5.294;2023-05-01T11:42:10;8.48;;;3.70;;
69985;SDS011;57328;52.054;5.294;2023-05-01T11:44:37;10.00;;;3.30;;
69985;SDS011;57328;52.054;5.294;2023-05-01T11:47:04;6.93;;;3.38;;
69985;SDS011;57328;52.054;5.294;2023-05-01T11:49:34;10.52;;;3.67;;
69985;SDS011;57328;52.054;5.294;2023-05-01T11:52:01;9.25;;;4.20;;
69985;SDS011;57328;52.054;5.294;2023-05-01T11:54:28;10.13;;;3.75;;
69985;SDS011;57328;52.054;5.294;2023-05-01T11:56:56;12.05;;;3.55;;
69985;SDS011;57328;52.054;5.294;2023-05-01T11:59:26;10.60;;;3.72;;
69985;SDS011;57328;52.054;5.294;2023-05-01T12:01:53;8.90;;;4.18;;
69985;SDS011;57328;52.054;5.294;2023-05-01T12:04:24;10.43;;;4.05;;
69985;SDS011;57328;52.054;5.294;2023-05-01T12:06:57;9.25;;;4.63;;
69985;SDS011;57328;52.054;5.294;2023-05-01T12:09:25;13.75;;;5.20;;
69985;SDS011;57328;52.054;5.294;2023-05-01T12:11:52;8.80;;;4.35;;
69985;SDS011;57328;52.054;5.294;2023-05-01T12:14:20;11.77;;;4.70;;
69985;SDS011;57328;52.054;5.294;2023-05-01T12:16:49;11.43;;;5.25;;
69985;SDS011;57328;52.054;5.294;2023-05-01T12:19:16;11.85;;;5.25;;
69985;SDS011;57328;52.054;5.294;2023-05-01T12:21:45;10.75;;;5.07;;
69985;SDS011;57328;52.054;5.294;2023-05-01T12:24:13;9.18;;;4.40;;
69985;SDS011;57328;52.054;5.294;2023-05-01T12:26:42;13.15;;;4.95;;
69985;SDS011;57328;52.054;5.294;2023-05-01T12:29:09;10.45;;;4.72;;
69985;SDS011;57328;52.054;5.294;2023-05-01T12:31:55;11.55;;;4.65;;
69985;SDS011;57328;52.054;5.294;2023-05-01T12:34:28;11.27;;;4.63;;
69985;SDS011;57328;52.054;5.294;2023-05-01T12:36:58;8.60;;;4.15;;
69985;SDS011;57328;52.054;5.294;2023-05-01T12:39:25;13.32;;;5.18;;
69985;SDS011;57328;52.054;5.294;2023-05-01T12:42:03;9.85;;;4.28;;
69985;SDS011;57328;52.054;5.294;2023-05-01T12:44:37;11.23;;;4.55;;
69985;SDS011;57328;52.054;5.294;2023-05-01T12:47:05;12.15;;;4.55;;
69985;SDS011;57328;52.054;5.294;2023-05-01T12:52:03;11.65;;;4.75;;
69985;SDS011;57328;52.054;5.294;2023-05-01T12:54:35;9.55;;;4.45;;
69985;SDS011;57328;52.054;5.294;2023-05-01T12:57:09;10.40;;;5.05;;
69985;SDS011;57328;52.054;5.294;2023-05-01T12:59:37;15.40;;;5.22;;
69985;SDS011;57328;52.054;5.294;2023-05-01T13:02:11;12.15;;;4.90;;
69985;SDS011;57328;52.054;5.294;2023-05-01T13:04:52;14.45;;;5.80;;
69985;SDS011;57328;52.054;5.294;2023-05-01T13:07:35;12.15;;;4.85;;
69985;SDS011;57328;52.054;5.294;2023-05-01T13:10:02;14.00;;;6.07;;
69985;SDS011;57328;52.054;5.294;2023-05-01T13:12:31;12.10;;;5.60;;
69985;SDS011;57328;52.054;5.294;2023-05-01T13:14:59;13.73;;;5.20;;
69985;SDS011;57328;52.054;5.294;2023-05-01T13:19:57;11.98;;;5.47;;
69985;SDS011;57328;52.054;5.294;2023-05-01T13:22:36;13.27;;;5.10;;
69985;SDS011;57328;52.054;5.294;2023-05-01T13:25:14;16.65;;;5.80;;
69985;SDS011;57328;52.054;5.294;2023-05-01T13:27:48;9.45;;;4.55;;
69985;SDS011;57328;52.054;5.294;2023-05-01T13:30:20;12.27;;;4.95;;
69985;SDS011;57328;52.054;5.294;2023-05-01T13:32:47;12.48;;;4.90;;
69985;SDS011;57328;52.054;5.294;2023-05-01T13:35:25;11.75;;;4.70;;
69985;SDS011;57328;52.054;5.294;2023-05-01T13:37:52;11.52;;;4.90;;
69985;SDS011;57328;52.054;5.294;2023-05-01T13:40:19;10.60;;;4.60;;
69985;SDS011;57328;52.054;5.294;2023-05-01T13:42:49;11.18;;;4.80;;
69985;SDS011;57328;52.054;5.294;2023-05-01T13:45:18;11.13;;;5.00;;
69985;SDS011;57328;52.054;5.294;2023-05-01T13:47:48;9.45;;;4.63;;
69985;SDS011;57328;52.054;5.294;2023-05-01T13:50:20;13.02;;;4.88;;
69985;SDS011;57328;52.054;5.294;2023-05-01T13:52:47;12.38;;;4.60;;
69985;SDS011;57328;52.054;5.294;2023-05-01T13:55:14;12.75;;;4.75;;
69985;SDS011;57328;52.054;5.294;2023-05-01T13:57:43;13.52;;;4.30;;
69985;SDS011;57328;52.054;5.294;2023-05-01T14:00:13;12.43;;;4.72;;
69985;SDS011;57328;52.054;5.294;2023-05-01T14:02:45;12.13;;;4.63;;
69985;SDS011;57328;52.054;5.294;2023-05-01T14:05:14;14.80;;;4.68;;
69985;SDS011;57328;52.054;5.294;2023-05-01T14:07:49;8.73;;;2.90;;
69985;SDS011;57328;52.054;5.294;2023-05-01T14:10:17;11.57;;;4.63;;
69985;SDS011;57328;52.054;5.294;2023-05-01T14:12:44;10.13;;;4.35;;
69985;SDS011;57328;52.054;5.294;2023-05-01T14:15:12;9.90;;;3.83;;
69985;SDS011;57328;52.054;5.294;2023-05-01T14:17:39;12.82;;;4.38;;
69985;SDS011;57328;52.054;5.294;2023-05-01T14:20:06;10.40;;;4.20;;
69985;SDS011;57328;52.054;5.294;2023-05-01T14:25:04;7.07;;;3.22;;
69985;SDS011;57328;52.054;5.294;2023-05-01T14:27:32;11.43;;;4.57;;
69985;SDS011;57328;52.054;5.294;2023-05-01T14:29:59;9.35;;;4.03;;
69985;SDS011;57328;52.054;5.294;2023-05-01T14:32:26;11.30;;;4.25;;
69985;SDS011;57328;52.054;5.294;2023-05-01T14:37:22;9.32;;;4.60;;
69985;SDS011;57328;52.054;5.294;2023-05-01T14:39:49;9.75;;;4.53;;
69985;SDS011;57328;52.054;5.294;2023-05-01T14:42:17;10.88;;;4.20;;
69985;SDS011;57328;52.054;5.294;2023-05-01T14:44:44;9.90;;;3.85;;
69985;SDS011;57328;52.054;5.294;2023-05-01T14:47:11;10.85;;;4.53;;
69985;SDS011;57328;52.054;5.294;2023-05-01T14:49:40;9.10;;;4.25;;
69985;SDS011;57328;52.054;5.294;2023-05-01T14:52:09;7.82;;;3.50;;
69985;SDS011;57328;52.054;5.294;2023-05-01T14:54:42;8.98;;;3.95;;
69985;SDS011;57328;52.054;5.294;2023-05-01T14:57:11;8.27;;;4.30;;
69985;SDS011;57328;52.054;5.294;2023-05-01T14:59:39;7.55;;;3.42;;
69985;SDS011;57328;52.054;5.294;2023-05-01T15:02:07;10.02;;;4.40;;
69985;SDS011;57328;52.054;5.294;2023-05-01T15:04:34;7.88;;;3.60;;
69985;SDS011;57328;52.054;5.294;2023-05-01T15:07:02;10.20;;;4.53;;
69985;SDS011;57328;52.054;5.294;2023-05-01T15:09:29;9.95;;;4.75;;
69985;SDS011;57328;52.054;5.294;2023-05-01T15:11:59;11.32;;;4.90;;
69985;SDS011;57328;52.054;5.294;2023-05-01T15:14:30;7.88;;;4.40;;
69985;SDS011;57328;52.054;5.294;2023-05-01T15:16:57;9.10;;;4.60;;
69985;SDS011;57328;52.054;5.294;2023-05-01T15:19:25;12.48;;;5.07;;
69985;SDS011;57328;52.054;5.294;2023-05-01T15:21:52;7.72;;;4.25;;
69985;SDS011;57328;52.054;5.294;2023-05-01T15:24:19;8.55;;;4.15;;
69985;SDS011;57328;52.054;5.294;2023-05-01T15:26:48;8.43;;;4.43;;
69985;SDS011;57328;52.054;5.294;2023-05-01T15:29:15;6.68;;;3.58;;
69985;SDS011;57328;52.054;5.294;2023-05-01T15:31:43;4.30;;;2.53;;
69985;SDS011;57328;52.054;5.294;2023-05-01T15:34:10;7.97;;;3.78;;
69985;SDS011;57328;52.054;5.294;2023-05-01T15:36:37;8.57;;;4.18;;
69985;SDS011;57328;52.054;5.294;2023-05-01T15:39:04;8.65;;;4.35;;
69985;SDS011;57328;52.054;5.294;2023-05-01T15:41:37;11.00;;;5.20;;
69985;SDS011;57328;52.054;5.294;2023-05-01T15:44:04;10.45;;;4.80;;
69985;SDS011;57328;52.054;5.294;2023-05-01T15:46:33;8.15;;;4.30;;
69985;SDS011;57328;52.054;5.294;2023-05-01T15:49:00;8.82;;;5.05;;
69985;SDS011;57328;52.054;5.294;2023-05-01T15:51:30;8.60;;;4.93;;
69985;SDS011;57328;52.054;5.294;2023-05-01T15:53:58;8.23;;;4.47;;
69985;SDS011;57328;52.054;5.294;2023-05-01T15:56:25;7.53;;;4.20;;
69985;SDS011;57328;52.054;5.294;2023-05-01T15:58:53;10.05;;;4.68;;